sensor_id;sensor_type;location;lat;lon;timestamp;pressure;altitude;pressure_sealevel;temperature;humidity
21960;BME280;11144;43.030;25.108;2023-09-19T03:51:40;99718.75;;;10.41;72.38
21960;BME280;11144;43.030;25.108;2023-09-19T03:53:14;99722.69;;;10.37;73.58
21960;BME280;11144;43.030;25.108;2023-09-19T03:54:46;99719.72;;;10.40;73.39
21960;BME280;11144;43.030;25.108;2023-09-19T03:56:19;99719.56;;;10.42;73.60
21960;BME280;11144;43.030;25.108;2023-09-19T03:57:52;99716.63;;;10.36;73.69
21960;BME280;11144;43.030;25.108;2023-09-19T03:59:25;99720.75;;;10.31;73.99
21960;BME280;11144;43.030;25.108;2023-09-19T04:01:01;99728.44;;;10.32;73.99
21960;BME280;11144;43.030;25.108;2023-09-19T04:02:34;99719.91;;;10.38;73.76
21960;BME280;11144;43.030;25.108;2023-09-19T04:04:07;99721.38;;;10.41;73.82
21960;BME280;11144;43.030;25.108;2023-09-19T04:05:41;99713.50;;;10.41;73.97
21960;BME280;11144;43.030;25.108;2023-09-19T04:07:15;99717.59;;;10.44;73.87
21960;BME280;11144;43.030;25.108;2023-09-19T04:08:48;99718.41;;;10.44;73.81
21960;BME280;11144;43.030;25.108;2023-09-19T04:10:21;99705.81;;;10.40;74.54
21960;BME280;11144;43.030;25.108;2023-09-19T04:11:54;99707.81;;;10.38;74.53
21960;BME280;11144;43.030;25.108;2023-09-19T04:13:27;99710.94;;;10.33;74.58
21960;BME280;11144;43.030;25.108;2023-09-19T04:15:00;99722.56;;;10.30;74.93
21960;BME280;11144;43.030;25.108;2023-09-19T04:16:32;99718.94;;;10.31;75.09
21960;BME280;11144;43.030;25.108;2023-09-19T04:18:06;99726.94;;;10.38;75.02
21960;BME280;11144;43.030;25.108;2023-09-19T04:19:38;99728.72;;;10.46;75.78
21960;BME280;11144;43.030;25.108;2023-09-19T04:21:13;99727.69;;;10.55;75.07
21960;BME280;11144;43.030;25.108;2023-09-19T04:22:47;99720.94;;;10.60;74.92
21960;BME280;11144;43.030;25.108;2023-09-19T04:24:21;99715.69;;;10.68;75.15
21960;BME280;11144;43.030;25.108;2023-09-19T04:25:53;99713.34;;;10.73;74.84
21960;BME280;11144;43.030;25.108;2023-09-19T04:27:27;99710.03;;;10.79;75.17
21960;BME280;11144;43.030;25.108;2023-09-19T04:28:59;99715.56;;;10.84;74.77
21960;BME280;11144;43.030;25.108;2023-09-19T04:30:33;99722.13;;;10.88;74.54
21960;BME280;11144;43.030;25.108;2023-09-19T04:32:05;99719.31;;;10.90;74.54
21960;BME280;11144;43.030;25.108;2023-09-19T04:33:39;99732.88;;;10.93;74.56
21960;BME280;11144;43.030;25.108;2023-09-19T04:35:12;99726.53;;;10.88;74.72
21960;BME280;11144;43.030;25.108;2023-09-19T04:36:45;99727.69;;;10.85;74.79
21960;BME280;11144;43.030;25.108;2023-09-19T04:38:19;99716.75;;;10.82;74.94
21960;BME280;11144;43.030;25.108;2023-09-19T04:39:52;99704.81;;;10.71;74.58
21960;BME280;11144;43.030;25.108;2023-09-19T04:41:26;99716.75;;;10.82;74.92
21960;BME280;11144;43.030;25.108;2023-09-19T04:43:00;99706.06;;;10.83;74.57
21960;BME280;11144;43.030;25.108;2023-09-19T04:44:32;99709.00;;;10.88;74.80
21960;BME280;11144;43.030;25.108;2023-09-19T04:46:05;99715.47;;;11.00;74.76
21960;BME280;11144;43.030;25.108;2023-09-19T04:47:39;99702.56;;;10.91;74.54
21960;BME280;11144;43.030;25.108;2023-09-19T04:49:12;99708.75;;;10.98;74.29
21960;BME280;11144;43.030;25.108;2023-09-19T04:50:45;99725.75;;;11.10;74.46
21960;BME280;11144;43.030;25.108;2023-09-19T04:52:18;99727.13;;;11.21;74.64
21960;BME280;11144;43.030;25.108;2023-09-19T04:53:52;99715.88;;;11.35;74.64
21960;BME280;11144;43.030;25.108;2023-09-19T04:55:25;99722.38;;;11.61;74.67
21960;BME280;11144;43.030;25.108;2023-09-19T04:56:58;99712.75;;;11.91;74.83
21960;BME280;11144;43.030;25.108;2023-09-19T04:58:31;99718.63;;;12.37;74.89
21960;BME280;11144;43.030;25.108;2023-09-19T05:00:05;99721.00;;;12.82;74.78
21960;BME280;11144;43.030;25.108;2023-09-19T05:01:44;99711.22;;;13.33;74.16
21960;BME280;11144;43.030;25.108;2023-09-19T05:03:18;99704.88;;;13.76;73.75
21960;BME280;11144;43.030;25.108;2023-09-19T05:04:52;99712.47;;;14.20;72.33
21960;BME280;11144;43.030;25.108;2023-09-19T05:06:26;99712.03;;;14.51;72.51
21960;BME280;11144;43.030;25.108;2023-09-19T05:07:58;99713.94;;;14.70;69.74
21960;BME280;11144;43.030;25.108;2023-09-19T05:09:38;99706.03;;;14.76;71.65
21960;BME280;11144;43.030;25.108;2023-09-19T05:11:14;99699.00;;;15.10;70.81
21960;BME280;11144;43.030;25.108;2023-09-19T05:12:46;99702.28;;;15.31;70.59
21960;BME280;11144;43.030;25.108;2023-09-19T05:14:20;99694.19;;;15.66;70.02
21960;BME280;11144;43.030;25.108;2023-09-19T05:15:53;99702.06;;;15.98;67.78
21960;BME280;11144;43.030;25.108;2023-09-19T05:17:26;99710.84;;;15.86;67.47
21960;BME280;11144;43.030;25.108;2023-09-19T05:18:58;99704.34;;;15.56;67.89
21960;BME280;11144;43.030;25.108;2023-09-19T05:20:34;99711.25;;;15.63;68.35
21960;BME280;11144;43.030;25.108;2023-09-19T05:22:08;99705.50;;;16.05;66.88
21960;BME280;11144;43.030;25.108;2023-09-19T05:23:41;99701.78;;;16.33;67.04
21960;BME280;11144;43.030;25.108;2023-09-19T05:25:16;99708.09;;;16.82;66.29
21960;BME280;11144;43.030;25.108;2023-09-19T05:26:50;99698.38;;;17.08;65.50
21960;BME280;11144;43.030;25.108;2023-09-19T05:28:24;99701.56;;;17.47;64.21
21960;BME280;11144;43.030;25.108;2023-09-19T05:29:57;99693.34;;;17.80;64.20
21960;BME280;11144;43.030;25.108;2023-09-19T05:31:30;99701.09;;;18.00;61.22
21960;BME280;11144;43.030;25.108;2023-09-19T05:33:03;99694.38;;;17.97;64.21
21960;BME280;11144;43.030;25.108;2023-09-19T05:34:36;99694.63;;;18.14;62.31
21960;BME280;11144;43.030;25.108;2023-09-19T05:36:10;99690.81;;;18.46;59.99
21960;BME280;11144;43.030;25.108;2023-09-19T05:37:44;99694.22;;;18.53;61.20
21960;BME280;11144;43.030;25.108;2023-09-19T05:39:18;99695.59;;;18.74;60.41
21960;BME280;11144;43.030;25.108;2023-09-19T05:40:53;99708.88;;;18.85;62.26
21960;BME280;11144;43.030;25.108;2023-09-19T05:42:26;99697.88;;;19.00;60.95
21960;BME280;11144;43.030;25.108;2023-09-19T05:43:59;99702.28;;;19.06;60.23
21960;BME280;11144;43.030;25.108;2023-09-19T05:45:35;99700.94;;;19.27;59.16
21960;BME280;11144;43.030;25.108;2023-09-19T05:47:08;99693.69;;;19.34;60.13
21960;BME280;11144;43.030;25.108;2023-09-19T05:48:41;99696.28;;;19.63;59.69
21960;BME280;11144;43.030;25.108;2023-09-19T05:50:15;99685.88;;;19.85;57.61
21960;BME280;11144;43.030;25.108;2023-09-19T05:51:48;99687.47;;;20.09;58.03
21960;BME280;11144;43.030;25.108;2023-09-19T05:53:22;99677.63;;;20.10;57.38
21960;BME280;11144;43.030;25.108;2023-09-19T05:54:56;99685.50;;;20.05;56.67
21960;BME280;11144;43.030;25.108;2023-09-19T05:56:29;99687.81;;;20.13;56.97
21960;BME280;11144;43.030;25.108;2023-09-19T05:58:03;99676.94;;;20.26;55.85
21960;BME280;11144;43.030;25.108;2023-09-19T05:59:36;99686.09;;;20.30;55.19
21960;BME280;11144;43.030;25.108;2023-09-19T06:01:10;99678.41;;;20.45;54.82
21960;BME280;11144;43.030;25.108;2023-09-19T06:02:43;99685.47;;;20.51;54.93
21960;BME280;11144;43.030;25.108;2023-09-19T06:04:16;99675.38;;;20.53;54.45
21960;BME280;11144;43.030;25.108;2023-09-19T06:05:49;99674.19;;;20.61;53.97
21960;BME280;11144;43.030;25.108;2023-09-19T06:07:24;99665.59;;;20.87;53.96
21960;BME280;11144;43.030;25.108;2023-09-19T06:08:59;99671.66;;;20.82;52.54
21960;BME280;11144;43.030;25.108;2023-09-19T06:10:32;99669.00;;;20.54;52.82
21960;BME280;11144;43.030;25.108;2023-09-19T06:12:06;99665.69;;;20.75;54.14
21960;BME280;11144;43.030;25.108;2023-09-19T06:13:40;99671.66;;;21.10;53.51
21960;BME280;11144;43.030;25.108;2023-09-19T06:15:13;99663.66;;;21.10;52.94
21960;BME280;11144;43.030;25.108;2023-09-19T06:16:47;99662.13;;;21.14;52.99
21960;BME280;11144;43.030;25.108;2023-09-19T06:18:20;99659.81;;;21.35;52.38
21960;BME280;11144;43.030;25.108;2023-09-19T06:19:54;99671.66;;;21.77;52.22
21960;BME280;11144;43.030;25.108;2023-09-19T06:21:28;99666.69;;;22.02;51.13
21960;BME280;11144;43.030;25.108;2023-09-19T06:23:02;99656.59;;;22.26;50.46
21960;BME280;11144;43.030;25.108;2023-09-19T06:24:35;99663.97;;;22.40;49.01
21960;BME280;11144;43.030;25.108;2023-09-19T06:26:08;99669.41;;;22.50;51.15
21960;BME280;11144;43.030;25.108;2023-09-19T06:27:42;99668.56;;;22.66;50.60
21960;BME280;11144;43.030;25.108;2023-09-19T06:29:16;99668.94;;;22.75;48.98
21960;BME280;11144;43.030;25.108;2023-09-19T06:30:48;99668.84;;;22.92;48.94
21960;BME280;11144;43.030;25.108;2023-09-19T06:32:26;99665.22;;;23.03;48.77
21960;BME280;11144;43.030;25.108;2023-09-19T06:33:59;99660.59;;;23.25;49.65
21960;BME280;11144;43.030;25.108;2023-09-19T06:35:33;99657.13;;;23.61;48.32
21960;BME280;11144;43.030;25.108;2023-09-19T06:37:06;99649.25;;;23.86;47.16
21960;BME280;11144;43.030;25.108;2023-09-19T06:38:39;99621.50;;;24.02;46.75
21960;BME280;11144;43.030;25.108;2023-09-19T06:40:14;99648.19;;;24.39;46.59
21960;BME280;11144;43.030;25.108;2023-09-19T06:41:46;99639.34;;;24.34;46.39
21960;BME280;11144;43.030;25.108;2023-09-19T06:43:22;99644.22;;;24.47;45.65
21960;BME280;11144;43.030;25.108;2023-09-19T06:44:54;99635.13;;;24.68;44.93
21960;BME280;11144;43.030;25.108;2023-09-19T06:46:28;99640.28;;;24.89;44.62
21960;BME280;11144;43.030;25.108;2023-09-19T06:48:05;99636.53;;;24.80;45.45
21960;BME280;11144;43.030;25.108;2023-09-19T06:49:39;99635.22;;;24.93;44.28
21960;BME280;11144;43.030;25.108;2023-09-19T06:51:11;99636.28;;;25.07;43.48
21960;BME280;11144;43.030;25.108;2023-09-19T06:52:49;99634.13;;;25.39;43.66
21960;BME280;11144;43.030;25.108;2023-09-19T06:54:23;99634.13;;;25.70;42.99
21960;BME280;11144;43.030;25.108;2023-09-19T06:55:57;99625.47;;;25.88;42.14
21960;BME280;11144;43.030;25.108;2023-09-19T06:57:30;99629.22;;;25.87;42.34
21960;BME280;11144;43.030;25.108;2023-09-19T06:59:05;99637.81;;;25.89;43.68
21960;BME280;11144;43.030;25.108;2023-09-19T07:00:39;99628.69;;;25.90;41.93
21960;BME280;11144;43.030;25.108;2023-09-19T07:02:11;99620.13;;;25.83;41.70
21960;BME280;11144;43.030;25.108;2023-09-19T07:03:45;99623.63;;;25.78;42.40
21960;BME280;11144;43.030;25.108;2023-09-19T07:05:18;99619.88;;;25.74;42.72
21960;BME280;11144;43.030;25.108;2023-09-19T07:06:53;99616.94;;;25.71;42.63
21960;BME280;11144;43.030;25.108;2023-09-19T07:08:25;99608.66;;;25.47;41.22
21960;BME280;11144;43.030;25.108;2023-09-19T07:09:58;99620.19;;;25.37;42.53
21960;BME280;11144;43.030;25.108;2023-09-19T07:11:31;99623.41;;;25.39;42.90
21960;BME280;11144;43.030;25.108;2023-09-19T07:13:07;99609.75;;;25.51;43.03
21960;BME280;11144;43.030;25.108;2023-09-19T07:14:42;99621.53;;;25.35;42.75
21960;BME280;11144;43.030;25.108;2023-09-19T07:16:15;99610.28;;;25.18;42.48
21960;BME280;11144;43.030;25.108;2023-09-19T07:18:00;99608.09;;;25.30;42.18
21960;BME280;11144;43.030;25.108;2023-09-19T07:19:32;99605.69;;;25.18;42.24
21960;BME280;11144;43.030;25.108;2023-09-19T07:21:06;99610.53;;;25.16;42.86
21960;BME280;11144;43.030;25.108;2023-09-19T07:22:38;99606.78;;;25.12;42.18
21960;BME280;11144;43.030;25.108;2023-09-19T07:24:12;99603.56;;;24.90;42.83
21960;BME280;11144;43.030;25.108;2023-09-19T07:25:45;99601.88;;;24.49;42.66
21960;BME280;11144;43.030;25.108;2023-09-19T07:27:19;99599.69;;;24.36;43.06
21960;BME280;11144;43.030;25.108;2023-09-19T07:28:51;99595.34;;;24.20;43.71
21960;BME280;11144;43.030;25.108;2023-09-19T07:30:27;99594.81;;;24.23;43.99
21960;BME280;11144;43.030;25.108;2023-09-19T07:31:59;99596.50;;;24.49;43.50
21960;BME280;11144;43.030;25.108;2023-09-19T07:33:33;99586.94;;;24.88;42.74
21960;BME280;11144;43.030;25.108;2023-09-19T07:35:06;99587.72;;;25.29;42.35
21960;BME280;11144;43.030;25.108;2023-09-19T07:36:42;99589.00;;;25.72;41.45
21960;BME280;11144;43.030;25.108;2023-09-19T07:38:16;99576.50;;;26.11;42.11
21960;BME280;11144;43.030;25.108;2023-09-19T07:39:49;99580.28;;;26.15;40.46
21960;BME280;11144;43.030;25.108;2023-09-19T07:41:23;99574.09;;;26.09;41.08
21960;BME280;11144;43.030;25.108;2023-09-19T07:42:58;99577.00;;;26.18;41.82
21960;BME280;11144;43.030;25.108;2023-09-19T07:44:35;99573.19;;;26.29;41.48
21960;BME280;11144;43.030;25.108;2023-09-19T07:46:10;99574.84;;;26.25;41.41
21960;BME280;11144;43.030;25.108;2023-09-19T07:47:44;99563.13;;;26.50;40.45
21960;BME280;11144;43.030;25.108;2023-09-19T07:49:19;99558.69;;;26.74;40.63
21960;BME280;11144;43.030;25.108;2023-09-19T07:50:51;99561.78;;;27.20;40.39
21960;BME280;11144;43.030;25.108;2023-09-19T07:52:25;99559.50;;;27.37;39.82
21960;BME280;11144;43.030;25.108;2023-09-19T07:54:00;99554.13;;;27.37;38.89
21960;BME280;11144;43.030;25.108;2023-09-19T07:55:35;99556.53;;;27.62;39.42
21960;BME280;11144;43.030;25.108;2023-09-19T07:57:08;99554.75;;;27.52;38.85
21960;BME280;11144;43.030;25.108;2023-09-19T07:58:43;99547.47;;;27.53;38.38
21960;BME280;11144;43.030;25.108;2023-09-19T08:00:18;99550.53;;;27.70;38.86
21960;BME280;11144;43.030;25.108;2023-09-19T08:01:55;99552.00;;;28.05;37.92
21960;BME280;11144;43.030;25.108;2023-09-19T08:03:27;99548.28;;;28.19;37.25
21960;BME280;11144;43.030;25.108;2023-09-19T08:05:03;99553.56;;;28.29;37.65
21960;BME280;11144;43.030;25.108;2023-09-19T08:06:39;99542.19;;;28.70;36.56
21960;BME280;11144;43.030;25.108;2023-09-19T08:08:14;99541.31;;;28.88;36.46
21960;BME280;11144;43.030;25.108;2023-09-19T08:09:48;99540.25;;;28.89;35.81
21960;BME280;11144;43.030;25.108;2023-09-19T08:11:23;99536.75;;;29.21;35.71
21960;BME280;11144;43.030;25.108;2023-09-19T08:12:57;99526.16;;;29.24;35.17
21960;BME280;11144;43.030;25.108;2023-09-19T08:14:33;99530.47;;;29.52;35.01
21960;BME280;11144;43.030;25.108;2023-09-19T08:16:06;99527.66;;;29.30;34.68
21960;BME280;11144;43.030;25.108;2023-09-19T08:17:41;99521.66;;;29.33;35.24
21960;BME280;11144;43.030;25.108;2023-09-19T08:19:14;99521.38;;;29.48;34.24
21960;BME280;11144;43.030;25.108;2023-09-19T08:20:49;99524.69;;;29.13;34.85
21960;BME280;11144;43.030;25.108;2023-09-19T08:22:23;99522.88;;;28.63;34.91
21960;BME280;11144;43.030;25.108;2023-09-19T08:23:56;99523.03;;;27.92;35.73
21960;BME280;11144;43.030;25.108;2023-09-19T08:25:29;99517.19;;;27.85;35.82
21960;BME280;11144;43.030;25.108;2023-09-19T08:27:04;99520.44;;;27.63;36.45
21960;BME280;11144;43.030;25.108;2023-09-19T08:28:37;99518.06;;;27.80;35.90
21960;BME280;11144;43.030;25.108;2023-09-19T08:30:13;99515.66;;;27.79;35.22
21960;BME280;11144;43.030;25.108;2023-09-19T08:31:46;99506.66;;;27.64;35.13
21960;BME280;11144;43.030;25.108;2023-09-19T08:33:23;99518.75;;;27.67;35.30
21960;BME280;11144;43.030;25.108;2023-09-19T08:34:56;99509.69;;;27.82;35.12
21960;BME280;11144;43.030;25.108;2023-09-19T08:36:29;99503.66;;;27.90;34.80
21960;BME280;11144;43.030;25.108;2023-09-19T08:38:03;99500.13;;;28.13;35.42
21960;BME280;11144;43.030;25.108;2023-09-19T08:39:36;99501.06;;;28.22;34.64
21960;BME280;11144;43.030;25.108;2023-09-19T08:41:09;99491.06;;;28.41;34.68
21960;BME280;11144;43.030;25.108;2023-09-19T08:42:49;99484.00;;;28.64;34.03
21960;BME280;11144;43.030;25.108;2023-09-19T08:44:22;99474.66;;;28.88;33.65
21960;BME280;11144;43.030;25.108;2023-09-19T08:46:02;99481.19;;;29.14;34.02
21960;BME280;11144;43.030;25.108;2023-09-19T08:47:43;99477.16;;;29.44;32.29
21960;BME280;11144;43.030;25.108;2023-09-19T08:49:24;99482.41;;;29.63;31.72
21960;BME280;11144;43.030;25.108;2023-09-19T08:51:03;99480.34;;;29.73;32.00
21960;BME280;11144;43.030;25.108;2023-09-19T08:52:42;99477.63;;;29.73;32.45
21960;BME280;11144;43.030;25.108;2023-09-19T08:54:21;99477.53;;;29.78;31.54
21960;BME280;11144;43.030;25.108;2023-09-19T08:55:59;99468.59;;;29.92;32.39
21960;BME280;11144;43.030;25.108;2023-09-19T08:57:36;99473.44;;;30.17;32.24
21960;BME280;11144;43.030;25.108;2023-09-19T08:59:14;99471.94;;;30.46;31.94
21960;BME280;11144;43.030;25.108;2023-09-19T09:00:48;99475.94;;;30.71;31.55
21960;BME280;11144;43.030;25.108;2023-09-19T09:02:22;99472.44;;;30.48;31.12
21960;BME280;11144;43.030;25.108;2023-09-19T09:03:57;99472.72;;;30.47;30.93
21960;BME280;11144;43.030;25.108;2023-09-19T09:05:32;99461.56;;;30.40;30.00
21960;BME280;11144;43.030;25.108;2023-09-19T09:07:10;99471.09;;;30.24;30.23
21960;BME280;11144;43.030;25.108;2023-09-19T09:08:44;99467.16;;;30.08;30.10
21960;BME280;11144;43.030;25.108;2023-09-19T09:10:18;99470.94;;;30.42;29.86
21960;BME280;11144;43.030;25.108;2023-09-19T09:11:54;99463.84;;;30.46;30.15
21960;BME280;11144;43.030;25.108;2023-09-19T09:13:29;99456.75;;;30.37;29.78
21960;BME280;11144;43.030;25.108;2023-09-19T09:15:01;99466.91;;;29.96;29.96
21960;BME280;11144;43.030;25.108;2023-09-19T09:16:35;99471.19;;;29.97;29.62
21960;BME280;11144;43.030;25.108;2023-09-19T09:18:09;99471.34;;;29.78;29.54
21960;BME280;11144;43.030;25.108;2023-09-19T09:19:42;99459.84;;;29.32;29.38
21960;BME280;11144;43.030;25.108;2023-09-19T09:21:17;99458.72;;;29.19;30.28
21960;BME280;11144;43.030;25.108;2023-09-19T09:22:53;99464.53;;;29.26;29.28
21960;BME280;11144;43.030;25.108;2023-09-19T09:24:27;99457.00;;;29.09;29.25
21960;BME280;11144;43.030;25.108;2023-09-19T09:26:00;99455.31;;;29.13;28.09
21960;BME280;11144;43.030;25.108;2023-09-19T09:27:40;99448.53;;;29.16;27.83
21960;BME280;11144;43.030;25.108;2023-09-19T09:29:12;99455.53;;;29.17;27.53
21960;BME280;11144;43.030;25.108;2023-09-19T09:30:52;99459.31;;;29.16;26.65
21960;BME280;11144;43.030;25.108;2023-09-19T09:32:26;99442.03;;;29.17;27.31
21960;BME280;11144;43.030;25.108;2023-09-19T09:34:01;99452.75;;;29.22;27.85
21960;BME280;11144;43.030;25.108;2023-09-19T09:35:33;99447.59;;;29.07;28.15
21960;BME280;11144;43.030;25.108;2023-09-19T09:37:13;99452.19;;;29.06;28.59
21960;BME280;11144;43.030;25.108;2023-09-19T09:38:47;99443.09;;;29.02;28.15
21960;BME280;11144;43.030;25.108;2023-09-19T09:40:21;99448.41;;;28.94;28.29
21960;BME280;11144;43.030;25.108;2023-09-19T09:42:08;99444.69;;;28.76;27.95
21960;BME280;11144;43.030;25.108;2023-09-19T09:43:42;99439.06;;;28.73;28.24
21960;BME280;11144;43.030;25.108;2023-09-19T09:45:20;99431.78;;;28.55;27.64
21960;BME280;11144;43.030;25.108;2023-09-19T09:47:01;99446.91;;;28.37;27.73
21960;BME280;11144;43.030;25.108;2023-09-19T09:49:06;99432.13;;;27.97;28.75
21960;BME280;11144;43.030;25.108;2023-09-19T09:50:50;99448.91;;;27.94;28.69
21960;BME280;11144;43.030;25.108;2023-09-19T09:52:29;99438.63;;;28.15;29.46
21960;BME280;11144;43.030;25.108;2023-09-19T09:54:10;99429.47;;;28.16;28.48
21960;BME280;11144;43.030;25.108;2023-09-19T09:56:04;99441.63;;;28.13;28.26
21960;BME280;11144;43.030;25.108;2023-09-19T09:57:42;99429.44;;;27.97;28.67
21960;BME280;11144;43.030;25.108;2023-09-19T09:59:16;99445.91;;;27.96;28.42
21960;BME280;11144;43.030;25.108;2023-09-19T10:00:53;99444.16;;;27.86;28.12
21960;BME280;11144;43.030;25.108;2023-09-19T10:02:30;99442.91;;;27.79;28.70
21960;BME280;11144;43.030;25.108;2023-09-19T10:04:09;99440.34;;;27.68;29.28
21960;BME280;11144;43.030;25.108;2023-09-19T10:05:44;99439.38;;;27.41;29.03
21960;BME280;11144;43.030;25.108;2023-09-19T10:07:25;99440.28;;;27.08;29.29
21960;BME280;11144;43.030;25.108;2023-09-19T10:09:06;99429.09;;;26.95;29.81
21960;BME280;11144;43.030;25.108;2023-09-19T10:10:44;99442.06;;;26.88;30.29
21960;BME280;11144;43.030;25.108;2023-09-19T10:12:27;99439.91;;;26.90;30.08
21960;BME280;11144;43.030;25.108;2023-09-19T10:14:02;99438.63;;;26.83;29.84
21960;BME280;11144;43.030;25.108;2023-09-19T10:15:39;99434.59;;;26.85;30.28
21960;BME280;11144;43.030;25.108;2023-09-19T10:17:16;99435.06;;;26.92;29.95
21960;BME280;11144;43.030;25.108;2023-09-19T10:18:53;99432.59;;;26.96;30.10
21960;BME280;11144;43.030;25.108;2023-09-19T10:20:30;99429.25;;;27.04;29.45
21960;BME280;11144;43.030;25.108;2023-09-19T10:22:07;99422.00;;;27.04;29.42
21960;BME280;11144;43.030;25.108;2023-09-19T10:23:42;99426.81;;;27.08;30.07
21960;BME280;11144;43.030;25.108;2023-09-19T10:25:17;99432.81;;;26.99;29.61
21960;BME280;11144;43.030;25.108;2023-09-19T10:26:55;99416.78;;;26.89;30.22
21960;BME280;11144;43.030;25.108;2023-09-19T10:28:30;99426.50;;;26.85;30.17
21960;BME280;11144;43.030;25.108;2023-09-19T10:30:06;99423.81;;;26.85;29.93
21960;BME280;11144;43.030;25.108;2023-09-19T10:31:42;99418.41;;;26.90;30.64
21960;BME280;11144;43.030;25.108;2023-09-19T10:33:21;99434.72;;;26.99;30.27
21960;BME280;11144;43.030;25.108;2023-09-19T10:34:58;99431.69;;;27.06;30.37
21960;BME280;11144;43.030;25.108;2023-09-19T10:36:33;99422.00;;;27.04;30.01
21960;BME280;11144;43.030;25.108;2023-09-19T10:38:09;99426.06;;;27.02;29.79
21960;BME280;11144;43.030;25.108;2023-09-19T10:39:46;99420.53;;;26.88;28.68
21960;BME280;11144;43.030;25.108;2023-09-19T10:41:22;99428.19;;;26.81;29.09
21960;BME280;11144;43.030;25.108;2023-09-19T10:43:00;99424.00;;;26.94;28.85
21960;BME280;11144;43.030;25.108;2023-09-19T10:44:37;99415.63;;;26.95;29.17
21960;BME280;11144;43.030;25.108;2023-09-19T10:46:13;99411.00;;;26.72;28.88
21960;BME280;11144;43.030;25.108;2023-09-19T10:47:46;99421.22;;;26.75;29.06
21960;BME280;11144;43.030;25.108;2023-09-19T10:49:20;99417.94;;;26.83;29.05
21960;BME280;11144;43.030;25.108;2023-09-19T10:51:01;99418.84;;;26.97;28.47
21960;BME280;11144;43.030;25.108;2023-09-19T10:52:39;99408.50;;;27.10;28.36
21960;BME280;11144;43.030;25.108;2023-09-19T10:54:15;99410.66;;;27.31;28.59
21960;BME280;11144;43.030;25.108;2023-09-19T10:55:53;99408.09;;;27.45;27.97
21960;BME280;11144;43.030;25.108;2023-09-19T10:57:29;99404.53;;;27.49;27.90
21960;BME280;11144;43.030;25.108;2023-09-19T10:59:09;99406.19;;;27.45;27.26
21960;BME280;11144;43.030;25.108;2023-09-19T11:00:55;99397.69;;;27.57;28.30
21960;BME280;11144;43.030;25.108;2023-09-19T11:02:28;99398.13;;;27.64;27.98
21960;BME280;11144;43.030;25.108;2023-09-19T11:04:23;99388.81;;;27.75;27.98
21960;BME280;11144;43.030;25.108;2023-09-19T11:06:07;99391.38;;;27.85;26.58
21960;BME280;11144;43.030;25.108;2023-09-19T11:07:58;99398.22;;;27.96;27.28
21960;BME280;11144;43.030;25.108;2023-09-19T11:09:48;99388.25;;;27.97;27.60
21960;BME280;11144;43.030;25.108;2023-09-19T11:11:44;99395.50;;;27.96;28.33
21960;BME280;11144;43.030;25.108;2023-09-19T11:13:27;99396.06;;;27.98;28.20
21960;BME280;11144;43.030;25.108;2023-09-19T11:15:04;99385.69;;;28.05;28.45
21960;BME280;11144;43.030;25.108;2023-09-19T11:16:39;99392.59;;;28.11;28.22
21960;BME280;11144;43.030;25.108;2023-09-19T11:18:55;99386.78;;;28.04;26.63
21960;BME280;11144;43.030;25.108;2023-09-19T11:20:29;99396.31;;;27.97;27.21
21960;BME280;11144;43.030;25.108;2023-09-19T11:22:14;99394.94;;;27.99;26.97
21960;BME280;11144;43.030;25.108;2023-09-19T11:24:30;99388.56;;;27.90;25.32
21960;BME280;11144;43.030;25.108;2023-09-19T11:26:39;99391.81;;;27.92;24.81
21960;BME280;11144;43.030;25.108;2023-09-19T11:28:31;99386.06;;;27.99;25.78
21960;BME280;11144;43.030;25.108;2023-09-19T11:30:28;99377.50;;;28.10;26.05
21960;BME280;11144;43.030;25.108;2023-09-19T11:32:04;99385.38;;;28.25;26.85
21960;BME280;11144;43.030;25.108;2023-09-19T11:33:38;99382.38;;;28.27;27.26
21960;BME280;11144;43.030;25.108;2023-09-19T11:35:18;99382.25;;;28.18;25.96
21960;BME280;11144;43.030;25.108;2023-09-19T11:36:51;99374.75;;;28.15;26.26
21960;BME280;11144;43.030;25.108;2023-09-19T11:38:57;99380.13;;;28.15;25.59
21960;BME280;11144;43.030;25.108;2023-09-19T11:40:33;99373.88;;;28.20;25.67
21960;BME280;11144;43.030;25.108;2023-09-19T11:42:41;99370.63;;;28.36;24.25
21960;BME280;11144;43.030;25.108;2023-09-19T11:44:35;99367.44;;;28.48;24.64
21960;BME280;11144;43.030;25.108;2023-09-19T11:46:10;99362.75;;;28.54;25.56
21960;BME280;11144;43.030;25.108;2023-09-19T11:47:45;99350.31;;;28.58;25.51
21960;BME280;11144;43.030;25.108;2023-09-19T11:49:21;99353.34;;;28.70;25.17
21960;BME280;11144;43.030;25.108;2023-09-19T11:51:10;99359.06;;;28.50;23.38
21960;BME280;11144;43.030;25.108;2023-09-19T11:52:49;99361.84;;;28.44;25.90
21960;BME280;11144;43.030;25.108;2023-09-19T11:54:24;99350.88;;;28.55;25.53
21960;BME280;11144;43.030;25.108;2023-09-19T11:56:00;99356.88;;;28.52;24.53
21960;BME280;11144;43.030;25.108;2023-09-19T11:57:34;99349.06;;;28.50;24.91
21960;BME280;11144;43.030;25.108;2023-09-19T11:59:09;99345.47;;;28.55;25.06
21960;BME280;11144;43.030;25.108;2023-09-19T12:00:45;99348.78;;;28.52;25.42
21960;BME280;11144;43.030;25.108;2023-09-19T12:02:31;99354.84;;;28.43;24.65
21960;BME280;11144;43.030;25.108;2023-09-19T12:04:12;99349.06;;;28.36;25.03
21960;BME280;11144;43.030;25.108;2023-09-19T12:05:47;99342.63;;;28.32;25.08
21960;BME280;11144;43.030;25.108;2023-09-19T12:07:19;99336.16;;;28.33;24.70
21960;BME280;11144;43.030;25.108;2023-09-19T12:08:54;99350.06;;;28.40;25.53
21960;BME280;11144;43.030;25.108;2023-09-19T12:10:27;99340.84;;;28.41;25.19
21960;BME280;11144;43.030;25.108;2023-09-19T12:12:01;99337.28;;;28.46;25.09
21960;BME280;11144;43.030;25.108;2023-09-19T12:13:34;99340.66;;;28.38;25.46